Bridgewater, Canada
Current Conditions -  °F | °C
As of 4:00 AM on Friday 28 Nov 2014 (Local Time) from CYZX Reporting Station
Snow Showers Snow Showers  
Wind Chill: 30°   Ceiling: 2600
Heat Index: 30°   Visibility: 15mi
Dew Point: 23°   Wind: 3mph
Humidity: 75%   Direction: 100°E
Pressure: 29.98"   Gusts: NA
Location:  44.37°N, 64.52°W
Report Text: CYZX 280800Z 10003KT 15SM -SHSN OVC026 M01/M05 A2998 RMK SC8 WNDY HILL 00000KT PCPN VRY LGT SLP153
Loading
Personal Weather Stations






























Interactive Weather Map New forecast layout! Learn more

10-Day Weather Forecast

Advertisements
Track Severe Weather on mobile